Time;durP1;ratioP1;P1;durP2;ratioP2;P2;SDS_P1;SDS_P2;PMS_P1;PMS_P2;Temp;Humidity;BMP_temperature;BMP_pressure;BME280_temperature;BME280_humidity;BME280_pressure;Samples;Min_cycle;Max_cycle;Signal;HPM_P1;HPM_P2
2023/05/22 00:01:45;;;;;;;13.55;9.23;;;17.40;99.90;;;;;;5053454;28;20052;-47
2023/05/22 00:04:12;;;;;;;16.10;8.55;;;17.40;99.90;;;;;;5053646;28;20086;-48
2023/05/22 00:06:41;;;;;;;14.68;9.57;;;17.40;99.90;;;;;;5053583;28;20056;-47
2023/05/22 00:09:07;;;;;;;15.15;9.75;;;17.40;99.90;;;;;;5053570;28;20061;-50
2023/05/22 00:11:34;;;;;;;14.25;9.35;;;17.40;99.90;;;;;;5053514;28;20136;-50
2023/05/22 00:14:00;;;;;;;14.80;9.77;;;17.40;99.90;;;;;;5053370;28;20057;-50
2023/05/22 00:16:26;;;;;;;15.68;10.30;;;17.40;99.90;;;;;;5053549;28;20045;-47
2023/05/22 00:18:53;;;;;;;14.48;9.07;;;17.40;99.90;;;;;;5052346;28;20075;-48
2023/05/22 00:21:19;;;;;;;14.05;9.05;;;17.40;99.90;;;;;;5057267;28;20060;-48
2023/05/22 00:23:44;;;;;;;14.90;9.35;;;17.40;99.90;;;;;;5057743;28;20396;-47
2023/05/22 00:26:14;;;;;;;14.30;8.88;;;17.40;99.90;;;;;;5057647;28;20099;-47
2023/05/22 00:28:40;;;;;;;15.82;9.18;;;17.40;99.90;;;;;;5057466;28;20080;-47
2023/05/22 00:31:05;;;;;;;13.65;8.75;;;17.40;99.90;;;;;;5057512;28;20084;-47
2023/05/22 00:33:32;;;;;;;13.95;8.95;;;17.40;99.90;;;;;;5057488;28;20052;-48
2023/05/22 00:35:58;;;;;;;13.40;9.00;;;17.40;99.90;;;;;;5057372;28;20052;-47
2023/05/22 00:38:31;;;;;;;16.48;9.75;;;17.40;99.90;;;;;;5039873;28;20403;-47
2023/05/22 00:40:57;;;;;;;15.95;9.40;;;17.40;99.90;;;;;;5056063;28;20507;-47
2023/05/22 00:43:22;;;;;;;13.25;9.05;;;17.40;99.90;;;;;;5057216;28;20060;-48
2023/05/22 00:45:48;;;;;;;17.35;9.93;;;17.30;99.90;;;;;;5057188;28;20041;-47
2023/05/22 00:48:14;;;;;;;15.70;9.32;;;17.30;99.90;;;;;;5057374;28;20083;-47
2023/05/22 00:50:41;;;;;;;14.65;9.50;;;17.20;99.90;;;;;;5057025;28;20515;-47
2023/05/22 00:53:07;;;;;;;14.73;8.95;;;17.20;99.90;;;;;;5056901;28;20053;-47
2023/05/22 00:55:33;;;;;;;13.18;8.50;;;17.20;99.90;;;;;;5056910;28;20037;-47
2023/05/22 00:57:59;;;;;;;15.32;9.48;;;17.10;99.90;;;;;;5057362;28;20496;-47
2023/05/22 01:00:25;;;;;;;15.93;9.50;;;17.10;99.90;;;;;;5056937;28;20100;-48
2023/05/22 01:02:51;;;;;;;14.93;9.45;;;17.10;99.90;;;;;;5056923;28;20569;-47
2023/05/22 01:05:16;;;;;;;13.25;8.55;;;17.00;99.90;;;;;;5057253;28;20045;-49
2023/05/22 01:07:44;;;;;;;17.08;9.88;;;17.00;99.90;;;;;;5056552;28;20392;-48
2023/05/22 01:10:10;;;;;;;18.63;9.80;;;17.00;99.90;;;;;;5056612;28;20507;-48
2023/05/22 01:12:39;;;;;;;17.52;10.30;;;17.00;99.90;;;;;;5056742;28;20151;-47
2023/05/22 01:15:20;;;;;;;15.82;8.77;;;17.00;99.90;;;;;;5055473;28;20057;-47
2023/05/22 01:17:58;;;;;;;17.23;9.68;;;17.00;99.90;;;;;;5055599;28;20052;-47
2023/05/22 01:20:50;;;;;;;15.52;9.77;;;17.10;99.90;;;;;;5056525;28;20095;-48
2023/05/22 01:23:37;;;;;;;17.38;10.00;;;17.10;99.90;;;;;;5049116;28;20377;-48
2023/05/22 01:26:40;;;;;;;16.50;9.57;;;17.10;99.90;;;;;;5056533;28;20480;-47
2023/05/22 01:29:27;;;;;;;14.85;9.38;;;17.00;99.90;;;;;;5056400;28;20041;-47
2023/05/22 01:31:54;;;;;;;;;;;17.10;99.90;;;;;;5056541;28;20044;-48
2023/05/22 01:34:20;;;;;;;17.30;10.13;;;17.00;99.90;;;;;;5056613;28;20272;-47
2023/05/22 01:36:48;;;;;;;16.90;10.23;;;17.00;99.90;;;;;;5056090;28;20103;-48
2023/05/22 01:39:16;;;;;;;16.95;9.82;;;17.00;99.90;;;;;;5054814;28;20545;-48
2023/05/22 01:41:41;;;;;;;15.68;10.43;;;17.00;99.90;;;;;;5055868;28;20186;-48
2023/05/22 01:44:07;;;;;;;15.82;10.00;;;17.00;99.90;;;;;;5056201;28;20080;-47
2023/05/22 01:46:33;;;;;;;17.75;10.63;;;17.00;99.90;;;;;;5056441;28;20116;-48
2023/05/22 01:48:58;;;;;;;16.20;10.20;;;17.00;99.90;;;;;;5056047;28;20049;-49
2023/05/22 01:51:52;;;;;;;15.00;9.75;;;17.00;99.90;;;;;;5054968;28;20040;-47
2023/05/22 01:54:30;;;;;;;16.35;9.55;;;17.00;99.90;;;;;;5054709;28;20064;-47
2023/05/22 01:57:06;;;;;;;16.48;9.57;;;17.00;99.90;;;;;;5055046;28;20098;-47
2023/05/22 01:59:33;;;;;;;16.95;10.50;;;17.00;99.90;;;;;;5055760;28;20037;-48
2023/05/22 02:02:08;;;;;;;16.35;9.52;;;16.90;99.90;;;;;;5055932;28;20045;-47
2023/05/22 02:04:41;;;;;;;17.13;10.10;;;16.90;99.90;;;;;;5055492;28;20084;-49
2023/05/22 02:07:10;;;;;;;16.40;9.55;;;16.90;99.90;;;;;;5055860;28;20052;-48
2023/05/22 02:09:37;;;;;;;15.88;9.75;;;16.90;99.90;;;;;;5055855;28;20179;-48
2023/05/22 02:12:04;;;;;;;14.73;10.43;;;16.90;99.90;;;;;;5055473;28;20049;-47
2023/05/22 02:14:30;;;;;;;16.65;11.13;;;16.90;99.90;;;;;;5055486;28;20096;-47
2023/05/22 02:16:56;;;;;;;15.65;10.05;;;16.90;99.90;;;;;;5055338;28;20404;-48
2023/05/22 02:19:23;;;;;;;16.88;10.25;;;16.80;99.90;;;;;;5055456;28;20543;-50
2023/05/22 02:21:48;;;;;;;18.20;10.95;;;16.80;99.90;;;;;;5055602;28;20128;-49
2023/05/22 02:24:14;;;;;;;16.90;11.07;;;16.80;99.90;;;;;;5055386;28;20140;-50
2023/05/22 02:26:41;;;;;;;16.05;10.55;;;16.80;99.90;;;;;;5037630;28;20111;-50
2023/05/22 02:29:06;;;;;;;;;;;16.80;99.90;;;;;;5055581;28;20496;-48
2023/05/22 02:31:32;;;;;;;16.63;10.25;;;16.80;99.90;;;;;;5054910;28;19978;-49
2023/05/22 02:33:58;;;;;;;18.33;11.30;;;16.80;99.90;;;;;;5055453;28;20041;-48
2023/05/22 02:36:25;;;;;;;18.35;11.27;;;16.70;99.90;;;;;;5055195;28;20366;-48
2023/05/22 02:38:51;;;;;;;15.68;10.90;;;16.70;99.90;;;;;;5055056;28;20049;-51
2023/05/22 02:41:17;;;;;;;17.15;11.55;;;16.70;99.90;;;;;;5055052;28;20048;-51
2023/05/22 02:43:43;;;;;;;;;;;16.70;99.90;;;;;;5053364;28;20451;-48
2023/05/22 02:46:08;;;;;;;20.55;11.50;;;16.70;99.90;;;;;;5053886;28;20019;-47
2023/05/22 02:48:34;;;;;;;19.20;11.57;;;16.70;99.90;;;;;;5054953;28;20045;-48
2023/05/22 02:51:00;;;;;;;19.27;11.45;;;16.70;99.90;;;;;;5055100;28;20507;-49
2023/05/22 02:53:26;;;;;;;15.50;10.50;;;16.70;99.90;;;;;;5054811;28;20427;-49
2023/05/22 02:55:51;;;;;;;;;;;16.70;99.90;;;;;;5054237;28;20052;-48
2023/05/22 02:58:17;;;;;;;17.80;11.50;;;16.70;99.90;;;;;;5054591;28;20394;-50
2023/05/22 03:00:44;;;;;;;17.10;11.20;;;16.70;99.90;;;;;;5054465;28;20053;-50
2023/05/22 03:03:10;;;;;;;16.75;10.82;;;16.60;99.90;;;;;;5054616;28;20502;-50
2023/05/22 03:05:37;;;;;;;16.90;11.27;;;16.70;99.90;;;;;;5053846;28;20052;-50
2023/05/22 03:08:03;;;;;;;19.52;11.45;;;16.60;99.90;;;;;;5054603;28;20467;-50
2023/05/22 03:10:28;;;;;;;19.55;12.05;;;16.70;99.90;;;;;;5054424;28;20132;-50
2023/05/22 03:12:54;;;;;;;17.65;10.98;;;16.70;99.90;;;;;;5054371;28;20053;-50
2023/05/22 03:15:20;;;;;;;16.55;11.07;;;16.70;99.90;;;;;;5054395;28;20140;-52
2023/05/22 03:17:45;;;;;;;18.60;10.63;;;16.70;99.90;;;;;;5054327;28;20127;-50
2023/05/22 03:20:15;;;;;;;20.40;10.85;;;16.70;99.90;;;;;;5054515;28;20041;-51
2023/05/22 03:22:41;;;;;;;18.50;11.07;;;16.70;99.90;;;;;;5054266;28;20044;-49
2023/05/22 03:25:08;;;;;;;;;;;16.70;99.90;;;;;;5054537;28;20079;-51
2023/05/22 03:27:34;;;;;;;19.55;11.15;;;16.70;99.90;;;;;;5053978;28;19928;-49
2023/05/22 03:30:00;;;;;;;18.15;11.38;;;16.70;99.90;;;;;;5053989;28;20041;-51
2023/05/22 03:32:25;;;;;;;18.23;11.52;;;16.70;99.90;;;;;;5054156;28;20049;-51
2023/05/22 03:34:51;;;;;;;19.90;12.88;;;16.70;99.90;;;;;;5053153;28;20128;-50
2023/05/22 03:37:17;;;;;;;17.63;11.30;;;16.70;99.90;;;;;;5053894;28;20087;-49
2023/05/22 03:39:42;;;;;;;20.48;11.93;;;16.60;99.90;;;;;;5053979;28;20291;-49
2023/05/22 03:42:08;;;;;;;18.20;11.65;;;16.60;99.90;;;;;;5054098;28;20495;-48
2023/05/22 03:44:34;;;;;;;18.73;12.07;;;16.60;99.90;;;;;;5053698;28;20085;-50
2023/05/22 03:46:59;;;;;;;18.52;11.20;;;16.60;99.90;;;;;;5053923;28;20040;-50
2023/05/22 03:49:25;;;;;;;18.17;11.30;;;16.50;99.90;;;;;;5053806;28;20498;-48
2023/05/22 03:51:51;;;;;;;17.45;11.07;;;16.50;99.90;;;;;;5053674;28;20099;-50
2023/05/22 03:54:17;;;;;;;19.65;11.90;;;16.50;99.90;;;;;;5053636;28;20077;-48
2023/05/22 03:56:42;;;;;;;19.70;11.25;;;16.40;99.90;;;;;;5053644;28;20492;-51
2023/05/22 03:59:08;;;;;;;19.08;11.68;;;16.40;99.90;;;;;;5053453;28;20037;-51
2023/05/22 04:01:37;;;;;;;20.83;12.05;;;16.40;99.90;;;;;;5053242;28;20045;-49
2023/05/22 04:04:04;;;;;;;19.02;11.23;;;16.40;99.90;;;;;;5053420;28;20502;-50
2023/05/22 04:06:31;;;;;;;17.02;10.88;;;16.40;99.90;;;;;;5052922;28;20439;-48
2023/05/22 04:08:59;;;;;;;17.85;11.27;;;16.40;99.90;;;;;;5053619;28;20060;-47
2023/05/22 04:11:24;;;;;;;19.67;11.27;;;16.40;99.90;;;;;;5053544;28;20056;-48
2023/05/22 04:13:50;;;;;;;17.20;10.65;;;16.40;99.90;;;;;;5053298;28;20071;-47
2023/05/22 04:16:17;;;;;;;17.70;10.77;;;16.30;99.90;;;;;;5052568;28;20045;-48
2023/05/22 04:18:42;;;;;;;18.33;10.68;;;16.30;99.90;;;;;;5053441;28;20049;-47
2023/05/22 04:21:08;;;;;;;18.17;11.20;;;16.30;99.90;;;;;;5052477;28;20542;-48
2023/05/22 04:23:34;;;;;;;18.30;10.43;;;16.30;99.90;;;;;;5053353;28;20054;-48
2023/05/22 04:26:01;;;;;;;16.92;10.60;;;16.30;99.90;;;;;;5053320;28;20049;-48
2023/05/22 04:28:29;;;;;;;18.13;11.10;;;16.30;99.90;;;;;;5053206;28;20045;-48
2023/05/22 04:30:56;;;;;;;17.60;10.23;;;16.30;99.90;;;;;;5052372;28;20052;-48
2023/05/22 04:33:25;;;;;;;18.35;10.60;;;16.30;99.90;;;;;;5053511;28;20123;-47
2023/05/22 04:35:51;;;;;;;18.27;10.68;;;16.30;99.90;;;;;;5053204;28;20565;-46
2023/05/22 04:38:17;;;;;;;17.00;10.00;;;16.30;99.90;;;;;;5053136;28;20045;-47
2023/05/22 04:40:43;;;;;;;17.13;10.32;;;16.30;99.90;;;;;;5053261;28;20053;-47
2023/05/22 04:43:11;;;;;;;15.75;9.75;;;16.30;99.90;;;;;;5052788;28;20400;-47
2023/05/22 04:45:38;;;;;;;17.75;9.70;;;16.30;99.90;;;;;;5053098;28;20088;-47
2023/05/22 04:48:04;;;;;;;19.15;10.55;;;16.30;99.90;;;;;;5052502;28;20053;-50
2023/05/22 04:50:31;;;;;;;18.75;10.70;;;16.40;99.90;;;;;;5053212;28;20044;-47
2023/05/22 04:53:02;;;;;;;15.65;10.00;;;16.40;99.90;;;;;;5053230;28;20056;-47
2023/05/22 04:55:32;;;;;;;15.27;10.07;;;16.40;99.90;;;;;;5052198;28;20056;-47
2023/05/22 04:57:58;;;;;;;17.40;10.23;;;16.40;99.90;;;;;;5053338;28;20049;-47
2023/05/22 05:00:27;;;;;;;15.55;10.43;;;16.40;99.90;;;;;;5053179;28;20107;-48
2023/05/22 05:02:53;;;;;;;16.83;10.57;;;16.50;99.90;;;;;;5053018;28;20049;-47
2023/05/22 05:05:19;;;;;;;16.88;9.38;;;16.50;99.90;;;;;;5053095;28;20045;-47
2023/05/22 05:07:46;;;;;;;15.35;9.65;;;16.50;99.90;;;;;;5056510;28;20102;-47
2023/05/22 05:10:11;;;;;;;16.65;9.77;;;16.50;99.90;;;;;;5056624;28;20048;-48
2023/05/22 05:12:37;;;;;;;15.95;9.60;;;16.50;99.90;;;;;;5056770;28;20401;-47
2023/05/22 05:15:03;;;;;;;14.23;9.20;;;16.60;99.90;;;;;;5056558;28;20045;-47
2023/05/22 05:17:29;;;;;;;14.32;8.27;;;16.60;99.90;;;;;;5056490;28;20041;-48
2023/05/22 05:19:54;;;;;;;13.65;8.02;;;16.60;99.90;;;;;;5055419;28;20056;-47
2023/05/22 05:22:20;;;;;;;14.20;8.13;;;16.60;99.90;;;;;;5056624;28;20132;-47
2023/05/22 05:24:46;;;;;;;12.73;8.43;;;16.60;99.90;;;;;;5056478;28;20392;-47
2023/05/22 05:27:11;;;;;;;14.52;9.18;;;16.60;99.90;;;;;;5056513;28;20048;-46
2023/05/22 05:29:37;;;;;;;12.55;7.40;;;16.70;99.90;;;;;;5055450;28;20400;-48
2023/05/22 05:32:03;;;;;;;12.05;7.82;;;16.70;99.90;;;;;;5056332;28;20056;-47
2023/05/22 05:34:29;;;;;;;11.77;7.78;;;16.70;99.90;;;;;;5056532;28;20045;-49
2023/05/22 05:36:56;;;;;;;10.75;7.43;;;16.70;99.90;;;;;;5056241;28;20041;-50
2023/05/22 05:39:21;;;;;;;12.98;7.43;;;16.70;99.90;;;;;;5055883;28;20108;-48
2023/05/22 05:41:47;;;;;;;10.98;6.78;;;16.70;99.90;;;;;;5056223;28;20049;-48
2023/05/22 05:44:13;;;;;;;13.52;8.10;;;16.70;99.90;;;;;;5055009;28;20443;-46
2023/05/22 05:46:38;;;;;;;12.60;8.07;;;16.70;99.90;;;;;;5056213;28;20040;-48
2023/05/22 05:49:10;;;;;;;11.45;7.20;;;16.80;99.90;;;;;;5056160;28;20048;-47
2023/05/22 05:51:37;;;;;;;12.07;7.47;;;16.80;99.90;;;;;;5055847;28;20051;-48
2023/05/22 05:54:03;;;;;;;;;;;16.80;99.90;;;;;;5056155;28;20041;-49
2023/05/22 05:56:29;;;;;;;11.10;6.95;;;16.80;99.90;;;;;;5055898;28;19921;-47
2023/05/22 05:58:54;;;;;;;10.98;7.43;;;16.80;99.90;;;;;;5054684;28;20094;-47
2023/05/22 06:01:23;;;;;;;11.88;6.50;;;16.90;99.90;;;;;;5055810;28;20045;-48
2023/05/22 06:03:49;;;;;;;10.90;6.88;;;16.90;99.90;;;;;;5055696;28;20045;-47
2023/05/22 06:06:16;;;;;;;11.57;6.38;;;16.90;99.90;;;;;;5055571;28;20044;-49
2023/05/22 06:08:42;;;;;;;10.45;6.60;;;16.90;99.90;;;;;;5055341;28;20067;-47
2023/05/22 06:11:08;;;;;;;9.57;6.15;;;17.00;99.90;;;;;;5056214;28;20080;-48
2023/05/22 06:13:34;;;;;;;14.45;7.32;;;17.00;99.90;;;;;;5055619;28;20447;-47
2023/05/22 06:16:00;;;;;;;9.95;6.70;;;17.00;99.90;;;;;;5055787;28;20052;-47
2023/05/22 06:18:26;;;;;;;10.27;6.45;;;17.00;99.90;;;;;;5054284;28;20128;-45
2023/05/22 06:20:52;;;;;;;11.13;6.10;;;17.00;99.90;;;;;;5055420;28;20148;-48
2023/05/22 06:23:18;;;;;;;9.48;5.88;;;17.10;99.90;;;;;;5055448;28;20044;-48
2023/05/22 06:25:43;;;;;;;11.90;6.47;;;17.00;99.90;;;;;;5055353;28;20045;-51
2023/05/22 06:28:09;;;;;;;9.68;6.00;;;17.00;99.90;;;;;;5055358;28;20041;-49
2023/05/22 06:30:35;;;;;;;12.15;5.85;;;17.00;99.90;;;;;;5055232;28;20048;-46
2023/05/22 06:33:02;;;;;;;10.38;5.68;;;17.00;99.90;;;;;;5055285;28;20098;-46
2023/05/22 06:35:29;;;;;;;11.68;5.22;;;17.00;99.90;;;;;;5055026;28;20501;-46
2023/05/22 06:37:54;;;;;;;;;;;17.00;99.90;;;;;;5055345;28;20392;-50
2023/05/22 06:40:21;;;;;;;11.40;5.68;;;17.00;99.90;;;;;;5055201;28;19929;-49
2023/05/22 06:42:47;;;;;;;10.90;5.40;;;16.90;99.90;;;;;;5055103;28;20060;-50
2023/05/22 06:45:13;;;;;;;7.68;4.97;;;17.00;99.90;;;;;;5054975;28;20569;-48
2023/05/22 06:47:39;;;;;;;8.70;4.75;;;17.00;99.90;;;;;;5037342;28;20499;-50
2023/05/22 06:50:05;;;;;;;8.88;4.88;;;17.00;99.90;;;;;;5054889;28;20543;-50
2023/05/22 06:52:32;;;;;;;11.30;4.85;;;17.00;99.90;;;;;;5054904;28;20060;-50
2023/05/22 06:55:04;;;;;;;8.88;4.60;;;17.00;99.90;;;;;;5054739;28;20053;-50
2023/05/22 06:57:30;;;;;;;7.90;4.28;;;17.00;99.90;;;;;;5054825;28;20088;-50
2023/05/22 06:59:56;;;;;;;7.63;4.05;;;17.00;99.90;;;;;;5054513;28;20456;-50
2023/05/22 07:02:22;;;;;;;7.13;4.28;;;16.90;99.90;;;;;;5054734;28;20051;-49
2023/05/22 07:04:47;;;;;;;8.35;3.75;;;16.90;99.90;;;;;;5054388;28;20400;-52
2023/05/22 07:07:13;;;;;;;7.20;3.50;;;16.80;99.90;;;;;;5053954;28;20044;-50
2023/05/22 07:09:39;;;;;;;10.65;3.85;;;16.80;99.90;;;;;;5054413;28;20060;-51
2023/05/22 07:12:05;;;;;;;10.65;3.42;;;16.70;99.90;;;;;;5054453;28;20065;-47
2023/05/22 07:14:31;;;;;;;8.30;3.85;;;16.70;99.90;;;;;;5054316;28;20045;-50
2023/05/22 07:16:57;;;;;;;8.13;3.53;;;16.60;99.90;;;;;;5053317;28;20049;-47
2023/05/22 07:19:22;;;;;;;8.40;3.67;;;16.60;99.90;;;;;;5054172;28;20041;-47
2023/05/22 07:21:48;;;;;;;8.73;3.83;;;16.60;99.90;;;;;;5054328;28;20132;-45
2023/05/22 07:24:14;;;;;;;10.90;5.43;;;16.50;99.90;;;;;;5054310;28;20049;-46
2023/05/22 07:26:45;;;;;;;9.75;4.32;;;16.50;99.90;;;;;;5053264;28;20040;-47
2023/05/22 07:29:12;;;;;;;9.70;4.10;;;16.50;99.90;;;;;;5053773;28;20048;-48
2023/05/22 07:31:38;;;;;;;8.82;3.70;;;16.40;99.90;;;;;;5054002;28;20051;-48
2023/05/22 07:34:04;;;;;;;8.73;3.85;;;16.40;99.90;;;;;;5053894;28;20132;-52
2023/05/22 07:36:30;;;;;;;7.22;3.78;;;16.30;99.90;;;;;;5052699;28;20436;-49
2023/05/22 07:38:56;;;;;;;8.13;3.22;;;16.30;99.90;;;;;;5054145;28;20056;-46
2023/05/22 07:41:24;;;;;;;9.75;3.35;;;16.30;99.90;;;;;;5054158;28;20044;-46
2023/05/22 07:43:50;;;;;;;11.45;4.03;;;16.30;99.90;;;;;;5054147;28;20131;-47
2023/05/22 07:46:15;;;;;;;9.00;3.30;;;16.20;99.90;;;;;;5053839;28;20136;-48
2023/05/22 07:48:42;;;;;;;6.82;3.47;;;16.20;99.90;;;;;;5053615;28;20052;-46
2023/05/22 07:51:08;;;;;;;7.72;4.00;;;16.20;99.90;;;;;;5054271;28;20455;-47
2023/05/22 07:53:34;;;;;;;7.25;3.40;;;16.20;99.90;;;;;;5053873;28;20080;-50
2023/05/22 07:56:00;;;;;;;;;;;16.10;99.90;;;;;;5054129;28;20044;-47
2023/05/22 07:58:26;;;;;;;8.90;3.50;;;16.20;99.90;;;;;;5053870;28;20386;-47
2023/05/22 08:00:52;;;;;;;8.50;3.72;;;16.20;99.90;;;;;;5053560;28;20516;-46
2023/05/22 08:03:18;;;;;;;11.15;4.15;;;16.10;99.90;;;;;;5053404;28;20088;-47
2023/05/22 08:05:44;;;;;;;9.02;4.18;;;16.10;99.90;;;;;;5053625;28;20153;-48
2023/05/22 08:08:10;;;;;;;9.45;3.50;;;16.10;99.90;;;;;;5053571;28;20049;-47
2023/05/22 08:10:36;;;;;;;9.55;4.07;;;16.00;99.90;;;;;;5052173;28;20071;-46
2023/05/22 08:13:05;;;;;;;8.48;4.63;;;16.00;99.90;;;;;;5052728;28;20401;-47
2023/05/22 08:15:33;;;;;;;7.63;4.30;;;16.00;99.90;;;;;;5053322;28;20167;-47
2023/05/22 08:18:00;;;;;;;8.85;4.28;;;16.00;99.90;;;;;;5053884;28;20044;-47
2023/05/22 08:20:25;;;;;;;8.13;4.07;;;16.00;99.90;;;;;;5053911;28;20037;-47
2023/05/22 08:22:51;;;;;;;8.95;4.45;;;16.00;99.90;;;;;;5052025;28;20060;-50
2023/05/22 08:25:17;;;;;;;10.38;4.55;;;15.90;99.90;;;;;;5053453;28;20041;-47
2023/05/22 08:27:43;;;;;;;8.00;4.90;;;15.90;99.90;;;;;;5053609;28;20045;-47
2023/05/22 08:30:08;;;;;;;14.65;5.30;;;15.90;99.90;;;;;;5053366;28;20081;-46
2023/05/22 08:32:34;;;;;;;9.85;5.53;;;15.90;99.90;;;;;;5053277;28;20056;-47
2023/05/22 08:35:00;;;;;;;9.60;5.32;;;15.90;99.90;;;;;;5053727;28;20041;-49
2023/05/22 08:37:26;;;;;;;9.88;5.65;;;15.90;99.90;;;;;;5053341;28;20047;-47
2023/05/22 08:39:52;;;;;;;10.77;5.10;;;15.90;99.90;;;;;;5053384;28;20128;-47
2023/05/22 08:42:17;;;;;;;10.57;4.68;;;15.90;99.90;;;;;;5056606;28;20049;-47
2023/05/22 08:44:43;;;;;;;9.55;4.72;;;15.90;99.90;;;;;;5055962;28;20508;-51
2023/05/22 08:47:12;;;;;;;11.82;5.20;;;15.90;99.90;;;;;;5057380;28;20045;-47
2023/05/22 08:49:39;;;;;;;9.05;5.10;;;15.90;99.90;;;;;;5057076;28;20582;-47
2023/05/22 08:52:12;;;;;;;13.52;5.55;;;16.00;99.90;;;;;;5057089;28;20053;-51
2023/05/22 08:54:42;;;;;;;12.65;5.53;;;16.00;99.90;;;;;;5057020;28;20049;-48
2023/05/22 08:57:08;;;;;;;9.75;5.45;;;16.00;99.90;;;;;;5057152;28;20052;-48
2023/05/22 08:59:36;;;;;;;9.02;4.93;;;16.00;99.90;;;;;;5056610;28;20045;-47
2023/05/22 09:02:04;;;;;;;10.50;5.05;;;16.00;99.90;;;;;;5056882;28;20484;-47
2023/05/22 09:04:30;;;;;;;9.93;5.32;;;16.10;99.90;;;;;;5056918;28;20090;-48
2023/05/22 09:06:55;;;;;;;9.60;4.90;;;16.10;99.90;;;;;;5055732;28;20442;-47
2023/05/22 09:09:21;;;;;;;12.20;5.93;;;16.10;99.90;;;;;;5056778;28;20060;-48
2023/05/22 09:11:47;;;;;;;9.50;4.88;;;16.10;99.90;;;;;;5056653;28;20500;-48
2023/05/22 09:14:14;;;;;;;9.25;5.10;;;16.10;99.90;;;;;;5056459;28;20049;-48
2023/05/22 09:16:53;;;;;;;12.23;4.95;;;16.10;99.90;;;;;;5056859;28;20056;-49
2023/05/22 09:19:19;;;;;;;10.02;5.30;;;16.20;99.90;;;;;;5056431;28;20049;-47
2023/05/22 09:21:45;;;;;;;14.05;5.55;;;16.20;99.90;;;;;;5056562;28;20084;-48
2023/05/22 09:24:10;;;;;;;11.95;5.50;;;16.20;99.90;;;;;;5056450;28;20053;-48
2023/05/22 09:26:40;;;;;;;11.60;5.53;;;16.30;99.90;;;;;;5056301;28;20099;-46
2023/05/22 09:29:08;;;;;;;10.13;5.28;;;16.40;99.90;;;;;;5056423;28;20045;-51
2023/05/22 09:31:43;;;;;;;10.77;5.63;;;16.50;99.90;;;;;;5056415;28;20052;-45
2023/05/22 09:34:12;;;;;;;9.45;5.40;;;16.60;99.90;;;;;;5056403;28;20111;-46
2023/05/22 09:36:38;;;;;;;7.90;4.53;;;16.70;99.90;;;;;;5056207;28;20045;-46
2023/05/22 09:39:04;;;;;;;8.32;4.95;;;16.80;99.90;;;;;;5056482;28;20087;-47
2023/05/22 09:41:34;;;;;;;11.77;5.32;;;16.90;99.90;;;;;;5056012;28;20041;-47
2023/05/22 09:44:00;;;;;;;8.95;5.38;;;16.90;99.90;;;;;;5056125;28;20099;-47
2023/05/22 09:46:25;;;;;;;11.60;5.45;;;17.00;99.90;;;;;;5056098;28;20419;-46
2023/05/22 09:48:51;;;;;;;12.30;5.40;;;17.00;99.90;;;;;;5056098;28;20045;-47
2023/05/22 09:51:21;;;;;;;11.48;5.93;;;17.00;99.90;;;;;;5055837;28;20045;-47
2023/05/22 09:53:48;;;;;;;11.27;5.90;;;17.10;99.90;;;;;;5055965;28;20045;-47
2023/05/22 09:56:15;;;;;;;10.13;5.55;;;17.10;99.90;;;;;;5056324;28;20049;-47
2023/05/22 09:58:42;;;;;;;11.05;5.53;;;17.10;99.90;;;;;;5055774;28;20045;-47
2023/05/22 10:01:10;;;;;;;11.07;5.57;;;17.20;99.90;;;;;;5054890;28;20056;-47
2023/05/22 10:03:39;;;;;;;13.32;5.95;;;17.30;99.90;;;;;;5054966;28;20127;-47
2023/05/22 10:06:06;;;;;;;9.60;5.30;;;17.30;99.90;;;;;;5055538;28;20049;-47
2023/05/22 10:08:43;;;;;;;11.35;5.93;;;17.30;99.90;;;;;;5055283;28;20049;-46
2023/05/22 10:11:09;;;;;;;;;;;17.40;99.90;;;;;;5056142;28;20136;-50
2023/05/22 10:13:36;;;;;;;9.13;5.45;;;17.50;99.90;;;;;;5055675;28;19932;-48
2023/05/22 10:16:03;;;;;;;12.45;6.57;;;17.50;99.90;;;;;;5055519;28;20049;-52
2023/05/22 10:18:29;;;;;;;13.13;6.68;;;17.50;99.90;;;;;;5055485;28;20052;-51
2023/05/22 10:20:56;;;;;;;;;;;17.50;99.90;;;;;;5055784;28;20554;-46
2023/05/22 10:23:23;;;;;;;11.60;6.23;;;17.50;99.90;;;;;;5055490;28;19975;-47
2023/05/22 10:25:49;;;;;;;13.20;6.40;;;17.50;99.90;;;;;;5054491;28;20528;-49
2023/05/22 10:28:24;;;;;;;12.73;7.03;;;17.50;99.90;;;;;;5055282;28;20049;-48
2023/05/22 10:30:59;;;;;;;15.07;7.50;;;17.60;99.90;;;;;;5055466;28;20049;-49
2023/05/22 10:33:58;;;;;;;14.25;6.60;;;17.60;99.90;;;;;;5055125;28;20053;-50
2023/05/22 10:36:50;;;;;;;12.32;6.95;;;17.70;99.90;;;;;;5047447;28;20056;-46
2023/05/22 10:39:39;;;;;;;14.48;6.82;;;17.70;99.90;;;;;;5053955;28;20545;-48
2023/05/22 10:42:13;;;;;;;13.50;6.30;;;17.60;99.90;;;;;;5055128;28;20049;-47
2023/05/22 10:44:39;;;;;;;11.40;6.97;;;17.60;99.90;;;;;;5055174;28;20053;-46
2023/05/22 10:47:10;;;;;;;11.82;7.15;;;17.70;99.90;;;;;;5054080;28;20048;-46
2023/05/22 10:49:36;;;;;;;12.40;7.00;;;17.70;99.90;;;;;;5054794;28;20037;-46
2023/05/22 10:52:07;;;;;;;12.90;7.22;;;17.70;99.90;;;;;;5054853;28;20145;-47
2023/05/22 10:54:53;;;;;;;16.23;7.55;;;17.80;99.90;;;;;;5054871;28;20048;-47
2023/05/22 10:57:22;;;;;;;12.95;6.82;;;17.80;99.90;;;;;;5055281;28;20446;-46
2023/05/22 10:59:48;;;;;;;12.55;7.43;;;17.90;99.90;;;;;;5054623;28;20167;-46
2023/05/22 11:02:29;;;;;;;10.73;6.38;;;18.00;99.90;;;;;;5054732;28;20056;-47
2023/05/22 11:05:24;;;;;;;12.68;7.10;;;18.00;99.90;;;;;;5053404;28;20126;-47
2023/05/22 11:07:50;;;;;;;13.18;7.40;;;18.10;99.90;;;;;;5053606;28;20111;-47
2023/05/22 11:10:25;;;;;;;10.80;6.68;;;18.20;99.90;;;;;;5054225;28;20088;-46
2023/05/22 11:13:11;;;;;;;13.53;7.90;;;18.30;99.90;;;;;;5053149;28;20049;-46
2023/05/22 11:15:44;;;;;;;13.15;7.82;;;18.40;99.90;;;;;;5054469;28;20329;-46
2023/05/22 11:18:13;;;;;;;11.25;6.80;;;18.50;99.90;;;;;;5054369;28;20072;-46
2023/05/22 11:20:39;;;;;;;11.70;7.10;;;18.70;99.90;;;;;;5054390;28;20056;-45
2023/05/22 11:23:06;;;;;;;13.27;8.40;;;18.90;99.90;;;;;;5054336;28;20095;-47
2023/05/22 11:25:33;;;;;;;12.70;7.70;;;19.10;99.90;;;;;;5054137;28;20049;-46
2023/05/22 11:28:02;;;;;;;12.75;7.95;;;19.30;99.90;;;;;;5054223;28;20052;-45
2023/05/22 11:30:31;;;;;;;13.60;7.68;;;19.50;99.90;;;;;;5054168;28;20071;-46
2023/05/22 11:33:01;;;;;;;13.32;8.02;;;19.90;99.90;;;;;;5054374;28;20127;-45
2023/05/22 11:35:27;;;;;;;11.05;7.07;;;20.10;99.90;;;;;;5054038;28;20083;-45
2023/05/22 11:37:54;;;;;;;12.90;7.57;;;20.40;99.90;;;;;;5053990;28;20037;-46
2023/05/22 11:40:23;;;;;;;12.00;7.97;;;20.50;99.90;;;;;;5053960;28;20041;-46
2023/05/22 11:42:48;;;;;;;14.25;7.57;;;20.70;99.90;;;;;;5053967;28;20145;-47
2023/05/22 11:45:14;;;;;;;11.02;7.18;;;20.90;99.90;;;;;;5053864;28;20084;-45
2023/05/22 11:47:40;;;;;;;12.00;7.70;;;21.10;99.90;;;;;;5053831;28;20049;-46
2023/05/22 11:50:11;;;;;;;14.23;8.07;;;21.30;99.90;;;;;;5053793;28;20045;-46
2023/05/22 11:52:39;;;;;;;13.00;7.57;;;21.40;99.90;;;;;;5053706;28;20049;-47
2023/05/22 11:55:06;;;;;;;12.55;7.80;;;21.50;99.90;;;;;;5052756;28;20542;-46
2023/05/22 11:57:33;;;;;;;12.20;8.40;;;21.60;99.90;;;;;;5053505;28;20492;-46
2023/05/22 12:00:00;;;;;;;13.32;7.50;;;21.70;99.90;;;;;;5053410;28;20362;-47
2023/05/22 12:02:26;;;;;;;13.45;8.07;;;21.80;99.90;;;;;;5053771;28;20040;-47
2023/05/22 12:04:55;;;;;;;13.55;8.23;;;21.90;99.90;;;;;;5053662;28;20049;-45
2023/05/22 12:07:22;;;;;;;11.45;7.30;;;22.00;99.90;;;;;;5053281;28;20049;-46
2023/05/22 12:09:48;;;;;;;13.23;7.35;;;22.10;99.90;;;;;;5053460;28;20057;-47
2023/05/22 12:12:17;;;;;;;13.23;8.00;;;22.20;99.90;;;;;;5053523;28;20056;-46
2023/05/22 12:14:47;;;;;;;13.63;9.00;;;22.30;99.90;;;;;;5052135;28;20059;-47
2023/05/22 12:17:12;;;;;;;11.77;7.63;;;22.40;99.90;;;;;;5053081;28;20048;-47
2023/05/22 12:19:42;;;;;;;11.05;7.20;;;22.40;99.90;;;;;;5053164;28;20391;-47
2023/05/22 12:22:09;;;;;;;12.30;7.88;;;22.50;99.90;;;;;;5053437;28;20182;-48
2023/05/22 12:24:52;;;;;;;11.35;7.80;;;22.50;99.90;;;;;;5053381;28;20149;-48
2023/05/22 12:27:18;;;;;;;10.88;6.93;;;22.50;99.90;;;;;;5053419;28;20088;-47
2023/05/22 12:29:43;;;;;;;12.38;7.30;;;22.50;99.90;;;;;;5052233;28;20142;-46
2023/05/22 12:32:11;;;;;;;11.45;7.40;;;22.60;99.90;;;;;;5053246;28;20044;-48
2023/05/22 12:34:45;;;;;;;13.02;7.05;;;22.70;99.90;;;;;;5053176;28;20052;-47
2023/05/22 12:37:24;;;;;;;12.30;7.65;;;22.80;99.90;;;;;;5053271;28;20141;-49
2023/05/22 12:40:02;;;;;;;10.30;6.57;;;22.90;99.90;;;;;;5053398;28;20041;-47
2023/05/22 12:42:28;;;;;;;13.13;7.55;;;23.00;99.90;;;;;;5053000;28;20496;-47